Time;durP1;ratioP1;P1;durP2;ratioP2;P2;SDS_P1;SDS_P2;PMS_P1;PMS_P2;Temp;Humidity;BMP_temperature;BMP_pressure;BME280_temperature;BME280_humidity;BME280_pressure;Samples;Min_cycle;Max_cycle;Signal;HPM_P1;HPM_P2
2024/04/07 00:02:16;;;;;;;3.37;2.50;;;15.60;1.00;;;;;;5012105;28;20465;-68
2024/04/07 00:04:41;;;;;;;3.23;2.93;;;15.50;1.00;;;;;;5011924;28;20489;-68
2024/04/07 00:07:07;;;;;;;5.60;2.50;;;15.30;1.00;;;;;;5011627;28;20505;-68
2024/04/07 00:09:33;;;;;;;4.57;3.00;;;15.20;1.00;;;;;;5011727;28;20672;-68
2024/04/07 00:12:01;;;;;;;3.70;2.60;;;15.00;1.00;;;;;;5011798;28;20179;-68
2024/04/07 00:14:35;;;;;;;5.37;3.37;;;14.90;1.00;;;;;;5011941;28;20934;-68
2024/04/07 00:17:01;;;;;;;4.70;3.17;;;14.90;1.00;;;;;;5011467;28;20447;-67
2024/04/07 00:19:26;;;;;;;4.23;3.17;;;14.80;1.00;;;;;;5011497;28;20414;-68
2024/04/07 00:21:52;;;;;;;3.80;3.30;;;14.80;1.00;;;;;;5011582;28;20187;-70
2024/04/07 00:24:17;;;;;;;4.80;3.07;;;14.70;1.00;;;;;;5011874;28;20272;-68
2024/04/07 00:26:43;;;;;;;5.40;3.40;;;14.60;1.00;;;;;;5015286;28;20272;-68
2024/04/07 00:29:08;;;;;;;5.43;3.50;;;14.40;1.00;;;;;;5015371;28;20192;-68
2024/04/07 00:31:34;;;;;;;3.80;3.13;;;14.30;1.00;;;;;;5014127;28;20554;-69
2024/04/07 00:33:59;;;;;;;4.93;3.17;;;14.20;1.00;;;;;;5015608;28;20179;-69
2024/04/07 00:36:25;;;;;;;4.70;3.60;;;14.20;1.00;;;;;;5015365;28;20200;-68
2024/04/07 00:38:50;;;;;;;5.20;3.60;;;14.10;1.00;;;;;;5015510;28;20203;-68
2024/04/07 00:41:16;;;;;;;4.20;2.70;;;14.10;1.00;;;;;;5015539;28;20208;-69
2024/04/07 00:43:41;;;;;;;6.83;3.30;;;14.00;1.00;;;;;;5015408;28;20186;-68
2024/04/07 00:46:07;;;;;;;6.10;2.93;;;13.90;1.00;;;;;;5015427;28;20214;-68
2024/04/07 00:48:33;;;;;;;4.57;3.27;;;14.00;1.00;;;;;;5015404;28;20231;-68
2024/04/07 00:50:59;;;;;;;4.20;3.57;;;13.90;1.00;;;;;;5015126;28;20175;-68
2024/04/07 00:53:25;;;;;;;6.13;4.00;;;13.80;1.00;;;;;;5013918;28;20182;-69
2024/04/07 00:55:51;;;;;;;5.03;3.23;;;13.70;1.00;;;;;;5015214;28;20434;-69
2024/04/07 00:58:17;;;;;;;7.03;4.93;;;13.60;1.00;;;;;;5015289;28;20460;-68
2024/04/07 01:00:44;;;;;;;7.93;4.63;;;13.50;1.00;;;;;;5014941;28;20182;-68
2024/04/07 01:03:14;;;;;;;5.20;4.10;;;13.40;1.00;;;;;;5015173;28;20434;-68
2024/04/07 01:05:44;;;;;;;5.10;3.87;;;13.30;1.00;;;;;;5014964;28;20973;-68
2024/04/07 01:08:10;;;;;;;7.33;3.70;;;13.10;1.00;;;;;;5014964;28;20756;-68
2024/04/07 01:10:36;;;;;;;4.47;3.23;;;13.10;1.00;;;;;;5014658;28;20924;-68
2024/04/07 01:13:06;;;;;;;5.50;3.40;;;13.10;1.00;;;;;;5014818;28;20411;-68
2024/04/07 01:15:35;;;;;;;4.33;3.40;;;13.10;1.00;;;;;;5015137;28;20195;-68
2024/04/07 01:18:01;;;;;;;4.30;3.10;;;13.10;1.00;;;;;;5014766;28;20832;-68
2024/04/07 01:20:28;;;;;;;6.73;4.27;;;13.10;1.00;;;;;;5014885;28;20442;-69
2024/04/07 01:22:54;;;;;;;4.30;3.10;;;13.10;1.00;;;;;;5015139;28;20675;-68
2024/04/07 01:25:20;;;;;;;4.60;3.10;;;13.10;1.00;;;;;;5014708;28;20436;-68
2024/04/07 01:27:57;;;;;;;4.67;3.40;;;13.00;1.00;;;;;;5014830;28;20261;-68
2024/04/07 01:30:23;;;;;;;6.17;3.87;;;13.00;1.00;;;;;;5014612;28;20506;-68
2024/04/07 01:32:49;;;;;;;3.33;2.73;;;12.90;1.00;;;;;;5014752;28;20462;-68
2024/04/07 01:35:15;;;;;;;5.40;3.20;;;12.80;1.00;;;;;;5014420;28;20489;-69
2024/04/07 01:37:41;;;;;;;4.03;3.20;;;12.80;1.00;;;;;;5014022;28;20510;-68
2024/04/07 01:40:08;;;;;;;4.63;3.40;;;12.70;1.00;;;;;;5014624;28;20823;-68
2024/04/07 01:42:35;;;;;;;4.63;3.37;;;12.80;1.00;;;;;;5014401;28;20666;-68
2024/04/07 01:45:01;;;;;;;8.47;3.37;;;12.80;1.00;;;;;;5014218;28;20454;-67
2024/04/07 01:47:26;;;;;;;7.63;4.07;;;12.80;1.00;;;;;;5014342;28;20427;-67
2024/04/07 01:49:52;;;;;;;6.50;3.70;;;12.80;1.00;;;;;;5014048;28;20983;-68
2024/04/07 01:52:18;;;;;;;6.17;3.83;;;12.70;1.00;;;;;;5014190;28;20188;-68
2024/04/07 01:54:46;;;;;;;5.83;3.47;;;12.70;1.00;;;;;;5014222;28;20719;-68
2024/04/07 01:57:12;;;;;;;5.23;3.53;;;12.80;1.00;;;;;;5014203;28;20263;-68
2024/04/07 01:59:37;;;;;;;5.10;3.20;;;12.80;1.00;;;;;;5013959;28;20502;-69
2024/04/07 02:02:03;;;;;;;9.30;3.43;;;12.80;1.00;;;;;;5014212;28;20212;-67
2024/04/07 02:04:29;;;;;;;5.47;4.43;;;12.90;1.00;;;;;;5013980;28;20198;-67
2024/04/07 02:06:55;;;;;;;3.93;3.53;;;12.80;1.00;;;;;;5013837;28;20196;-68
2024/04/07 02:09:21;;;;;;;4.40;3.60;;;12.80;1.00;;;;;;5013724;28;20176;-67
2024/04/07 02:11:49;;;;;;;5.23;3.40;;;12.90;1.00;;;;;;5013927;28;20454;-68
2024/04/07 02:14:15;;;;;;;4.77;3.93;;;12.90;1.00;;;;;;5013802;28;20230;-68
2024/04/07 02:16:41;;;;;;;6.87;3.27;;;12.80;1.00;;;;;;5013551;28;20439;-68
2024/04/07 02:19:07;;;;;;;4.23;2.60;;;12.90;1.00;;;;;;5013358;28;20583;-68
2024/04/07 02:21:33;;;;;;;4.97;3.83;;;12.90;1.00;;;;;;5013547;28;20323;-68
2024/04/07 02:23:59;;;;;;;4.17;2.80;;;12.90;1.00;;;;;;5013561;28;20414;-69
2024/04/07 02:26:26;;;;;;;3.30;2.70;;;12.90;1.00;;;;;;5013425;28;20858;-69
2024/04/07 02:28:52;;;;;;;5.40;3.30;;;12.90;1.00;;;;;;5013829;28;20529;-70
2024/04/07 02:31:17;;;;;;;4.00;2.60;;;13.00;1.00;;;;;;5013526;28;20438;-69
2024/04/07 02:33:46;;;;;;;3.70;2.80;;;13.00;1.00;;;;;;5013591;28;20258;-69
2024/04/07 02:36:12;;;;;;;4.67;2.93;;;13.00;1.00;;;;;;5013324;28;20189;-68
2024/04/07 02:38:37;;;;;;;3.43;2.80;;;13.00;1.00;;;;;;5013004;28;20451;-68
2024/04/07 02:41:03;;;;;;;5.60;3.37;;;13.10;1.00;;;;;;5013062;28;20422;-69
2024/04/07 02:43:29;;;;;;;4.10;2.87;;;13.10;1.00;;;;;;5013751;28;20223;-68
2024/04/07 02:48:38;;;;;;;4.60;3.53;;;13.10;1.00;;;;;;5012284;28;20227;-68
2024/04/07 02:51:04;;;;;;;6.33;3.23;;;13.20;1.00;;;;;;5012763;28;20419;-67
2024/04/07 02:53:29;;;;;;;9.10;2.70;;;13.20;1.00;;;;;;5013022;28;20180;-68
2024/04/07 02:55:55;;;;;;;4.53;3.27;;;13.20;1.00;;;;;;5011722;28;20732;-68
2024/04/07 02:58:20;;;;;;;4.07;3.23;;;13.20;1.00;;;;;;5012842;28;20314;-69
2024/04/07 03:00:46;;;;;;;5.40;3.23;;;13.20;1.00;;;;;;5012906;28;20205;-67
2024/04/07 03:03:11;;;;;;;7.23;2.50;;;13.20;1.00;;;;;;5012776;28;20165;-67
2024/04/07 03:05:38;;;;;;;4.80;2.57;;;13.20;1.00;;;;;;5012740;28;20192;-68
2024/04/07 03:08:05;;;;;;;3.60;2.60;;;13.20;1.00;;;;;;5012972;28;20254;-68
2024/04/07 03:10:30;;;;;;;5.50;2.80;;;13.20;1.00;;;;;;5012622;28;20419;-68
2024/04/07 03:12:56;;;;;;;4.13;2.60;;;13.20;1.00;;;;;;5012713;28;20423;-68
2024/04/07 03:15:21;;;;;;;3.80;2.60;;;13.30;1.00;;;;;;5012531;28;20579;-67
2024/04/07 03:17:47;;;;;;;4.37;2.53;;;13.20;1.00;;;;;;5012370;28;20200;-70
2024/04/07 03:20:12;;;;;;;4.50;2.20;;;13.20;1.00;;;;;;5012374;28;20185;-68
2024/04/07 03:22:38;;;;;;;3.73;2.23;;;13.20;1.00;;;;;;5012448;28;20287;-68
2024/04/07 03:25:04;;;;;;;3.70;2.60;;;13.20;1.00;;;;;;5012426;28;20250;-69
2024/04/07 03:27:29;;;;;;;6.20;2.63;;;13.20;1.00;;;;;;5012314;28;20206;-68
2024/04/07 03:29:55;;;;;;;3.40;1.93;;;13.20;1.00;;;;;;5012336;28;20733;-68
2024/04/07 03:32:20;;;;;;;4.60;2.63;;;13.10;1.00;;;;;;5012227;28;20176;-68
2024/04/07 03:34:46;;;;;;;3.93;2.70;;;13.20;1.00;;;;;;5012309;28;20226;-68
2024/04/07 03:37:13;;;;;;;3.60;2.20;;;13.10;1.00;;;;;;5012353;28;20182;-68
2024/04/07 03:39:39;;;;;;;2.73;2.30;;;13.20;1.00;;;;;;5012223;28;20191;-67
2024/04/07 03:42:05;;;;;;;4.90;2.93;;;13.10;1.00;;;;;;5012076;28;20413;-68
2024/04/07 03:44:31;;;;;;;3.70;3.10;;;13.10;1.00;;;;;;5012180;28;20260;-69
2024/04/07 03:46:57;;;;;;;4.03;2.97;;;13.00;1.00;;;;;;5035560;23;20550;-71
2024/04/07 03:49:24;;;;;;;5.80;2.60;;;13.00;1.00;;;;;;5011920;28;20403;-70
2024/04/07 03:51:50;;;;;;;4.40;2.53;;;12.80;1.00;;;;;;5010557;28;20419;-69
2024/04/07 03:54:16;;;;;;;6.20;2.77;;;12.90;1.00;;;;;;5010900;28;20423;-71
2024/04/07 03:56:41;;;;;;;4.60;3.83;;;12.90;1.00;;;;;;5012107;28;20960;-69
2024/04/07 03:59:07;;;;;;;3.13;2.37;;;12.90;1.00;;;;;;5010581;28;20300;-70
2024/04/07 04:01:33;;;;;;;4.00;3.17;;;12.90;1.00;;;;;;5011992;28;20616;-71
2024/04/07 04:03:59;;;;;;;4.20;2.27;;;12.90;1.00;;;;;;5010259;28;20187;-70
2024/04/07 04:06:25;;;;;;;3.47;2.43;;;12.90;1.00;;;;;;5011924;28;20824;-70
2024/04/07 04:08:50;;;;;;;2.20;1.70;;;12.90;1.00;;;;;;5014161;28;20189;-69
2024/04/07 04:11:16;;;;;;;2.90;2.00;;;12.90;1.00;;;;;;5012781;28;20191;-69
2024/04/07 04:13:43;;;;;;;5.93;2.40;;;12.90;1.00;;;;;;5013616;28;20531;-69
2024/04/07 04:16:08;;;;;;;4.63;2.53;;;12.80;1.00;;;;;;5014436;28;20220;-70
2024/04/07 04:18:34;;;;;;;2.70;2.20;;;12.70;1.00;;;;;;5014391;28;20450;-70
2024/04/07 04:21:00;;;;;;;2.93;2.40;;;12.80;1.00;;;;;;5012724;28;20184;-70
2024/04/07 04:23:25;;;;;;;4.80;2.10;;;12.80;1.00;;;;;;5012548;28;20175;-70
2024/04/07 04:25:55;;;;;;;4.03;2.10;;;12.70;1.00;;;;;;5012156;28;20277;-71
2024/04/07 04:28:21;;;;;;;3.43;1.90;;;12.70;1.00;;;;;;5027343;28;20548;-70
2024/04/07 04:30:59;;;;;;;3.37;2.23;;;12.70;1.00;;;;;;5011868;28;20485;-70
2024/04/07 04:33:26;;;;;;;2.80;2.07;;;12.70;1.00;;;;;;5011844;28;20461;-71
2024/04/07 04:35:52;;;;;;;4.03;2.30;;;12.80;1.00;;;;;;5011985;28;20814;-70
2024/04/07 04:38:18;;;;;;;2.90;2.10;;;12.80;1.00;;;;;;5010746;28;20458;-71
2024/04/07 04:40:53;;;;;;;4.03;2.10;;;12.80;1.00;;;;;;5027183;28;20176;-70
2024/04/07 04:43:19;;;;;;;3.47;2.03;;;12.80;1.00;;;;;;5011912;28;20664;-71
2024/04/07 04:46:09;;;;;;;4.40;2.57;;;12.80;1.00;;;;;;5010681;28;20451;-70
2024/04/07 04:48:35;;;;;;;2.90;1.97;;;12.70;1.00;;;;;;5003340;28;20961;-69
2024/04/07 04:51:02;;;;;;;1.97;1.63;;;12.80;1.00;;;;;;5012108;28;20972;-71
2024/04/07 04:53:28;;;;;;;2.70;1.57;;;12.90;1.00;;;;;;5011876;28;20461;-70
2024/04/07 04:55:58;;;;;;;3.40;1.90;;;12.90;1.00;;;;;;5027215;28;20994;-71
2024/04/07 04:58:24;;;;;;;2.37;1.67;;;13.00;1.00;;;;;;5011883;28;20458;-72
2024/04/07 05:00:49;;;;;;;4.90;2.63;;;13.10;1.00;;;;;;5010088;28;20416;-71
2024/04/07 05:03:15;;;;;;;2.43;2.10;;;13.10;1.00;;;;;;5010696;28;20238;-69
2024/04/07 05:05:41;;;;;;;5.13;1.70;;;13.30;1.00;;;;;;5011501;28;20191;-69
2024/04/07 05:08:07;;;;;;;3.40;2.40;;;13.30;1.00;;;;;;5011424;28;20185;-70
2024/04/07 05:10:33;;;;;;;5.30;2.37;;;13.40;1.00;;;;;;5010932;28;20664;-70
2024/04/07 05:12:58;;;;;;;3.03;1.87;;;13.60;1.00;;;;;;5014700;28;20742;-72
2024/04/07 05:15:24;;;;;;;2.23;1.67;;;13.60;1.00;;;;;;5014459;28;20434;-70
2024/04/07 05:17:50;;;;;;;3.13;2.20;;;13.70;1.00;;;;;;5014344;28;20204;-70
2024/04/07 05:20:16;;;;;;;3.47;2.40;;;13.70;1.00;;;;;;5014115;28;20422;-70
2024/04/07 05:22:42;;;;;;;3.33;2.10;;;13.80;1.00;;;;;;5014454;28;20180;-69
2024/04/07 05:25:08;;;;;;;2.50;2.00;;;13.90;1.00;;;;;;5029392;28;20185;-70
2024/04/07 05:27:34;;;;;;;3.57;2.27;;;14.10;1.00;;;;;;5012994;28;20764;-70
2024/04/07 05:30:01;;;;;;;3.40;2.13;;;14.20;1.00;;;;;;5014728;28;20424;-77
2024/04/07 05:32:27;;;;;;;2.97;2.17;;;14.30;1.00;;;;;;5014782;28;20265;-68
2024/04/07 05:34:52;;;;;;;3.30;2.20;;;14.50;1.00;;;;;;5014500;28;20453;-69
2024/04/07 05:37:20;;;;;;;5.90;2.13;;;14.60;1.00;;;;;;5014249;28;20484;-69
2024/04/07 05:39:52;;;;;;;4.37;2.23;;;14.70;1.00;;;;;;5014033;28;20208;-69
2024/04/07 05:42:18;;;;;;;3.03;1.70;;;14.70;1.00;;;;;;5014139;28;20439;-69
2024/04/07 05:44:44;;;;;;;2.73;1.70;;;14.80;1.00;;;;;;5014417;28;20715;-70
2024/04/07 05:47:10;;;;;;;2.40;1.80;;;14.80;1.00;;;;;;5014002;28;20454;-70
2024/04/07 05:49:38;;;;;;;7.63;2.80;;;14.80;1.00;;;;;;5013723;28;20437;-70
2024/04/07 05:52:07;;;;;;;2.33;1.77;;;14.90;1.00;;;;;;5013805;28;20477;-70
2024/04/07 05:54:33;;;;;;;2.83;2.33;;;15.00;1.00;;;;;;5014059;28;20869;-69
2024/04/07 05:56:58;;;;;;;2.73;1.90;;;15.10;1.00;;;;;;5014220;28;20545;-68
2024/04/07 05:59:24;;;;;;;3.20;2.40;;;15.10;1.00;;;;;;5013842;28;20211;-69
2024/04/07 06:01:53;;;;;;;3.07;2.37;;;15.20;1.00;;;;;;5013974;28;20180;-70
2024/04/07 06:04:19;;;;;;;3.37;2.10;;;15.30;1.00;;;;;;5013902;28;20453;-69
2024/04/07 06:06:45;;;;;;;2.40;1.93;;;15.40;1.00;;;;;;5012696;28;20443;-68
2024/04/07 06:09:10;;;;;;;2.70;2.03;;;15.40;1.00;;;;;;5013707;28;20176;-69
2024/04/07 06:11:36;;;;;;;2.77;2.03;;;15.50;1.00;;;;;;5013743;28;20665;-68
2024/04/07 06:14:03;;;;;;;6.30;2.40;;;15.50;1.00;;;;;;5012226;28;20249;-69
2024/04/07 06:16:28;;;;;;;5.20;2.90;;;15.70;1.00;;;;;;5012366;28;20810;-70
2024/04/07 06:18:54;;;;;;;6.47;2.73;;;15.80;1.00;;;;;;5028860;28;20458;-69
2024/04/07 06:21:21;;;;;;;5.97;2.30;;;16.00;1.00;;;;;;5013473;28;20263;-70
2024/04/07 06:23:47;;;;;;;9.80;2.53;;;16.10;1.00;;;;;;5013167;28;20183;-69
2024/04/07 06:26:13;;;;;;;2.30;1.73;;;16.10;1.00;;;;;;5013030;28;20493;-69
2024/04/07 06:28:39;;;;;;;5.10;2.10;;;16.30;1.00;;;;;;5013514;28;20497;-69
2024/04/07 06:31:05;;;;;;;3.03;2.40;;;16.60;1.00;;;;;;5013045;28;20504;-69
2024/04/07 06:33:31;;;;;;;3.70;2.80;;;16.90;1.00;;;;;;5013115;28;20647;-68
2024/04/07 06:35:57;;;;;;;6.00;3.47;;;17.10;1.00;;;;;;5012847;28;20453;-68
2024/04/07 06:38:23;;;;;;;6.00;2.80;;;17.40;1.00;;;;;;5012743;28;20458;-69
2024/04/07 06:40:48;;;;;;;3.53;2.40;;;17.60;1.00;;;;;;5010793;28;20439;-69
2024/04/07 06:43:14;;;;;;;5.63;2.40;;;17.80;1.00;;;;;;5012342;28;20187;-69
2024/04/07 06:45:39;;;;;;;4.50;3.10;;;18.00;1.00;;;;;;5012311;28;20243;-69
2024/04/07 06:48:05;;;;;;;4.20;3.13;;;18.20;1.00;;;;;;5012121;28;20619;-69
2024/04/07 06:50:34;;;;;;;3.73;2.80;;;18.30;1.00;;;;;;5010366;28;20283;-68
2024/04/07 06:53:00;;;;;;;5.07;4.57;;;18.30;1.00;;;;;;5012182;28;20184;-70
2024/04/07 06:55:25;;;;;;;7.13;3.67;;;18.50;1.00;;;;;;5012284;28;20787;-69
2024/04/07 06:57:51;;;;;;;5.93;3.20;;;18.60;1.00;;;;;;5011935;28;20221;-70
2024/04/07 07:00:16;;;;;;;4.83;3.17;;;18.80;1.00;;;;;;5012004;28;20191;-69
2024/04/07 07:02:42;;;;;;;3.87;3.13;;;18.90;1.00;;;;;;5012444;28;20550;-70
2024/04/07 07:05:08;;;;;;;7.23;2.57;;;18.80;1.00;;;;;;5010785;28;20674;-69
2024/04/07 07:07:35;;;;;;;3.73;2.70;;;18.80;1.00;;;;;;5012033;28;20560;-69
2024/04/07 07:10:00;;;;;;;3.47;3.17;;;18.90;1.00;;;;;;5011999;28;20419;-69
2024/04/07 07:12:26;;;;;;;3.47;3.17;;;19.00;1.00;;;;;;5010615;28;20926;-69
2024/04/07 07:14:52;;;;;;;4.17;2.70;;;19.20;1.00;;;;;;5012142;28;20267;-69
2024/04/07 07:17:18;;;;;;;9.23;3.10;;;19.30;1.00;;;;;;5011781;28;20200;-69
2024/04/07 07:19:44;;;;;;;5.00;3.00;;;19.20;1.00;;;;;;5008929;28;20481;-69
2024/04/07 07:22:10;;;;;;;4.80;3.53;;;19.30;1.00;;;;;;5011561;28;20871;-70
2024/04/07 07:24:35;;;;;;;3.00;2.70;;;19.40;1.00;;;;;;5012447;28;20208;-70
2024/04/07 07:27:01;;;;;;;4.77;2.90;;;19.50;1.00;;;;;;5016275;28;20206;-70
2024/04/07 07:29:26;;;;;;;6.20;2.97;;;19.70;1.00;;;;;;5015721;28;20328;-69
2024/04/07 07:31:56;;;;;;;4.10;2.97;;;20.00;1.00;;;;;;5018939;28;20293;-70
2024/04/07 07:34:24;;;;;;;3.23;2.90;;;20.20;1.00;;;;;;5013283;28;20176;-69
2024/04/07 07:36:50;;;;;;;2.47;2.27;;;20.50;1.00;;;;;;5011046;28;20481;-70
2024/04/07 07:39:16;;;;;;;5.30;3.20;;;20.80;1.00;;;;;;5010120;28;20470;-70
2024/04/07 07:41:42;;;;;;;3.67;3.00;;;21.20;1.00;;;;;;5012109;28;20414;-70
2024/04/07 07:44:08;;;;;;;3.07;2.60;;;21.60;1.00;;;;;;5011625;28;20488;-70
2024/04/07 07:46:33;;;;;;;7.73;2.97;;;22.10;1.00;;;;;;5010098;28;20644;-68
2024/04/07 07:48:59;;;;;;;3.90;3.40;;;22.60;1.00;;;;;;5011311;28;20579;-69
2024/04/07 07:51:24;;;;;;;3.93;3.53;;;22.90;1.00;;;;;;5010106;28;20279;-69
2024/04/07 07:53:50;;;;;;;4.67;3.20;;;23.00;1.00;;;;;;5009964;28;20663;-70
2024/04/07 07:56:16;;;;;;;3.80;3.40;;;23.50;1.00;;;;;;5011573;28;20568;-72
2024/04/07 07:58:42;;;;;;;3.73;3.30;;;23.90;1.00;;;;;;5026132;28;20470;-69
2024/04/07 08:01:08;;;;;;;4.80;4.17;;;24.00;1.00;;;;;;5011342;28;20251;-69
2024/04/07 08:03:35;;;;;;;3.10;2.80;;;24.20;1.00;;;;;;5011427;28;20614;-70
2024/04/07 08:06:01;;;;;;;5.63;4.07;;;24.00;1.00;;;;;;5009988;28;20206;-69
2024/04/07 08:08:26;;;;;;;4.67;4.03;;;23.60;1.00;;;;;;5011548;28;20418;-69
2024/04/07 08:10:52;;;;;;;16.23;3.90;;;23.70;1.00;;;;;;5025999;28;20425;-71
2024/04/07 08:13:18;;;;;;;5.87;4.87;;;23.80;1.00;;;;;;5011316;28;20175;-70
2024/04/07 08:15:44;;;;;;;7.40;3.87;;;24.20;1.00;;;;;;5011469;28;20529;-70
2024/04/07 08:18:11;;;;;;;9.40;4.07;;;24.40;1.00;;;;;;5010956;28;20199;-70
2024/04/07 08:20:36;;;;;;;4.50;4.10;;;24.50;1.00;;;;;;5011030;28;20419;-70
2024/04/07 08:23:02;;;;;;;5.33;3.37;;;24.60;1.00;;;;;;5012131;28;20724;-71
2024/04/07 08:25:27;;;;;;;6.17;4.37;;;24.70;1.00;;;;;;5013896;28;20198;-70
2024/04/07 08:27:53;;;;;;;4.80;3.87;;;24.70;1.00;;;;;;5014944;28;20529;-70
2024/04/07 08:30:19;;;;;;;5.57;3.90;;;24.90;1.00;;;;;;5013885;28;20505;-70
2024/04/07 08:32:44;;;;;;;6.47;4.70;;;25.10;1.00;;;;;;5012940;28;20294;-70
2024/04/07 08:35:10;;;;;;;9.63;4.50;;;25.40;1.00;;;;;;5013381;28;20179;-69
2024/04/07 08:37:38;;;;;;;4.07;3.70;;;25.30;1.00;;;;;;5014068;28;20299;-69
2024/04/07 08:40:05;;;;;;;5.83;5.10;;;25.30;1.00;;;;;;5015241;28;20434;-68
2024/04/07 08:42:32;;;;;;;6.03;5.43;;;25.30;1.00;;;;;;5017117;28;20438;-69
2024/04/07 08:45:02;;;;;;;6.07;5.57;;;25.50;1.00;;;;;;5014940;28;20415;-69
2024/04/07 08:47:32;;;;;;;7.43;5.17;;;25.80;1.00;;;;;;5016559;28;20427;-70
2024/04/07 08:49:58;;;;;;;6.17;4.10;;;25.70;1.00;;;;;;5014580;28;20414;-69
2024/04/07 08:52:24;;;;;;;7.80;4.30;;;25.50;1.00;;;;;;5014553;28;20546;-69
2024/04/07 08:54:50;;;;;;;6.93;4.00;;;25.30;1.00;;;;;;5013310;28;20521;-71
2024/04/07 08:57:16;;;;;;;7.67;4.40;;;25.00;1.00;;;;;;5014580;28;20199;-70
2024/04/07 08:59:46;;;;;;;4.60;3.67;;;24.70;1.00;;;;;;5014225;28;20187;-70
2024/04/07 09:02:13;;;;;;;6.60;4.20;;;24.70;1.00;;;;;;5014212;28;20437;-70
2024/04/07 09:04:40;;;;;;;6.73;4.23;;;24.30;1.00;;;;;;5012437;28;20422;-70
2024/04/07 09:07:05;;;;;;;9.23;4.33;;;24.60;1.00;;;;;;5014174;28;20517;-69
2024/04/07 09:09:31;;;;;;;5.03;3.60;;;24.70;1.00;;;;;;5013601;28;20805;-70
2024/04/07 09:11:59;;;;;;;4.83;3.70;;;24.60;1.00;;;;;;5013859;28;20268;-69
2024/04/07 09:14:26;;;;;;;4.07;3.67;;;24.50;1.00;;;;;;5014016;28;20839;-69
2024/04/07 09:17:05;;;;;;;4.40;3.67;;;24.10;1.00;;;;;;5014046;28;20438;-69
2024/04/07 09:19:32;;;;;;;6.13;5.07;;;24.10;1.00;;;;;;5013519;28;20470;-69
2024/04/07 09:21:57;;;;;;;3.40;3.10;;;24.40;1.00;;;;;;5013638;28;20406;-70
2024/04/07 09:24:25;;;;;;;7.13;4.60;;;24.60;1.00;;;;;;5013312;28;20438;-69
2024/04/07 09:26:52;;;;;;;3.97;3.60;;;24.60;1.00;;;;;;5013116;28;20199;-69
2024/04/07 09:29:18;;;;;;;5.30;4.00;;;24.60;1.00;;;;;;5013159;28;20423;-69
2024/04/07 09:31:43;;;;;;;4.90;3.53;;;25.00;1.00;;;;;;5013475;28;20426;-69
2024/04/07 09:34:09;;;;;;;5.00;4.17;;;25.50;1.00;;;;;;5012150;28;20687;-69
2024/04/07 09:36:35;;;;;;;5.80;4.37;;;25.80;1.00;;;;;;5011918;28;20307;-69
2024/04/07 09:39:02;;;;;;;4.93;4.43;;;25.90;1.00;;;;;;5013240;28;20561;-69
2024/04/07 09:41:29;;;;;;;5.90;4.70;;;25.40;1.00;;;;;;5011599;28;20262;-70
2024/04/07 09:43:55;;;;;;;8.93;4.77;;;25.10;1.00;;;;;;5013219;28;20831;-68
2024/04/07 09:46:22;;;;;;;6.40;4.20;;;25.40;1.00;;;;;;5036780;23;20501;-66
2024/04/07 09:48:53;;;;;;;5.00;4.07;;;25.70;1.00;;;;;;5014155;28;20411;-67
2024/04/07 09:51:21;;;;;;;7.67;5.30;;;26.00;1.00;;;;;;5013858;28;20414;-67
2024/04/07 09:54:02;;;;;;;3.90;3.20;;;26.10;1.00;;;;;;5013868;28;20753;-67
2024/04/07 09:56:37;;;;;;;3.90;3.50;;;25.80;1.00;;;;;;5013470;28;20579;-67
2024/04/07 09:59:04;;;;;;;8.03;4.03;;;25.50;1.00;;;;;;5013736;28;20465;-67
2024/04/07 10:01:30;;;;;;;5.70;4.23;;;25.80;1.00;;;;;;5013809;28;20461;-66
2024/04/07 10:03:57;;;;;;;7.47;4.40;;;25.80;1.00;;;;;;5013697;28;20474;-67
2024/04/07 10:06:24;;;;;;;8.63;4.40;;;25.70;1.00;;;;;;5013520;28;20804;-68
2024/04/07 10:08:50;;;;;;;6.00;5.00;;;25.70;1.00;;;;;;5014286;28;21054;-67
2024/04/07 10:11:16;;;;;;;4.30;3.77;;;25.60;1.00;;;;;;5015062;28;20419;-68
2024/04/07 10:13:44;;;;;;;5.83;3.73;;;25.70;1.00;;;;;;5014826;28;20415;-67
2024/04/07 10:16:09;;;;;;;5.60;4.53;;;25.60;1.00;;;;;;5014742;28;20522;-67
2024/04/07 10:18:38;;;;;;;5.57;2.90;;;25.30;1.00;;;;;;5013745;28;20545;-67
2024/04/07 10:21:07;;;;;;;6.77;4.17;;;24.90;1.00;;;;;;5012130;28;20594;-67
2024/04/07 10:23:37;;;;;;;5.77;3.50;;;24.90;1.00;;;;;;5013678;28;20842;-67
2024/04/07 10:26:05;;;;;;;4.10;3.70;;;24.70;1.00;;;;;;5013417;28;20466;-67
2024/04/07 10:28:53;;;;;;;6.50;4.37;;;24.70;1.00;;;;;;5013208;28;20827;-67
2024/04/07 10:31:32;;;;;;;7.43;4.70;;;24.80;1.00;;;;;;5013135;28;20492;-67
2024/04/07 10:33:58;;;;;;;6.63;4.30;;;24.60;1.00;;;;;;5013449;28;20426;-67
2024/04/07 10:36:25;;;;;;;8.50;4.13;;;24.60;1.00;;;;;;5012999;28;20642;-67
2024/04/07 10:38:58;;;;;;;5.00;4.50;;;24.80;1.00;;;;;;5013010;28;20489;-67
2024/04/07 10:41:42;;;;;;;7.90;3.83;;;24.70;1.00;;;;;;5011198;28;20425;-67
2024/04/07 10:44:09;;;;;;;6.07;4.30;;;24.80;1.00;;;;;;5005931;28;20554;-68
2024/04/07 10:46:35;;;;;;;3.80;3.50;;;25.20;1.00;;;;;;5012627;28;20603;-67
2024/04/07 10:49:02;;;;;;;5.63;4.93;;;25.40;1.00;;;;;;5012842;28;20509;-68
2024/04/07 10:51:27;;;;;;;4.90;4.30;;;25.60;1.00;;;;;;5012833;28;20192;-67
2024/04/07 10:53:59;;;;;;;6.53;4.53;;;26.00;1.00;;;;;;4995008;28;20430;-67
2024/04/07 10:56:25;;;;;;;8.50;3.40;;;26.30;1.00;;;;;;4993075;28;20599;-67
2024/04/07 10:58:51;;;;;;;5.00;4.50;;;26.50;1.00;;;;;;4992844;28;20852;-68
2024/04/07 11:01:17;;;;;;;4.17;3.70;;;26.40;1.00;;;;;;4993032;28;20431;-68
2024/04/07 11:03:43;;;;;;;5.27;4.30;;;26.40;1.00;;;;;;4993088;28;20564;-68
2024/04/07 11:06:09;;;;;;;6.63;3.63;;;26.80;1.00;;;;;;4992824;28;20427;-68
2024/04/07 11:08:35;;;;;;;4.30;3.70;;;26.70;1.00;;;;;;4994189;28;20191;-68
2024/04/07 11:11:02;;;;;;;4.67;3.40;;;26.70;1.00;;;;;;5012263;28;20222;-68
2024/04/07 11:13:28;;;;;;;3.23;2.93;;;26.60;1.00;;;;;;5011336;28;20781;-68
2024/04/07 11:15:55;;;;;;;4.47;3.20;;;26.80;1.00;;;;;;5012520;28;20905;-68
2024/04/07 11:18:22;;;;;;;3.73;3.43;;;27.00;1.00;;;;;;4997052;28;21022;-67
2024/04/07 11:20:48;;;;;;;6.27;4.00;;;27.10;1.00;;;;;;4992491;28;20442;-68
2024/04/07 11:23:15;;;;;;;5.67;4.47;;;27.10;1.00;;;;;;4992726;28;20933;-67
2024/04/07 11:25:43;;;;;;;4.67;3.93;;;26.90;1.00;;;;;;4992414;28;20461;-67
2024/04/07 11:28:09;;;;;;;5.03;4.13;;;26.70;1.00;;;;;;4992712;28;20424;-67
2024/04/07 11:30:37;;;;;;;11.60;4.30;;;26.10;1.00;;;;;;4992218;28;20463;-68
2024/04/07 11:33:07;;;;;;;5.07;3.40;;;26.10;1.00;;;;;;4991130;28;20478;-68
2024/04/07 11:35:34;;;;;;;3.63;3.30;;;26.30;1.00;;;;;;5004683;28;20585;-67
2024/04/07 11:38:01;;;;;;;6.10;3.97;;;26.30;1.00;;;;;;5011995;28;20481;-68
2024/04/07 11:40:26;;;;;;;6.90;4.10;;;25.90;1.00;;;;;;5011802;28;20411;-68
2024/04/07 11:42:52;;;;;;;6.40;4.10;;;25.90;1.00;;;;;;5022946;28;20732;-68
2024/04/07 11:45:19;;;;;;;9.27;3.87;;;26.20;1.00;;;;;;5010459;28;20214;-68
2024/04/07 11:47:44;;;;;;;6.70;3.57;;;26.30;1.00;;;;;;5012086;28;20474;-67
2024/04/07 11:50:10;;;;;;;7.40;4.10;;;26.60;1.00;;;;;;5012202;28;20418;-67
2024/04/07 11:52:36;;;;;;;8.77;3.37;;;26.70;1.00;;;;;;5012970;28;20179;-67
2024/04/07 11:55:02;;;;;;;4.50;4.10;;;26.80;1.00;;;;;;5011686;28;20180;-68
2024/04/07 11:57:28;;;;;;;5.10;3.77;;;27.10;1.00;;;;;;5011606;28;20441;-68
2024/04/07 11:59:53;;;;;;;9.63;4.90;;;27.00;1.00;;;;;;5011512;28;20415;-69
2024/04/07 12:02:19;;;;;;;4.20;3.70;;;26.60;1.00;;;;;;5011467;28;20175;-67
2024/04/07 12:04:44;;;;;;;8.93;3.70;;;26.80;1.00;;;;;;5010843;28;20203;-69
2024/04/07 12:07:10;;;;;;;9.57;4.03;;;26.80;1.00;;;;;;5011161;28;20690;-68
2024/04/07 12:09:36;;;;;;;5.53;4.20;;;27.10;1.00;;;;;;5011435;28;20260;-68
2024/04/07 12:12:02;;;;;;;5.67;3.87;;;27.30;1.00;;;;;;5011607;28;20597;-70
2024/04/07 12:14:28;;;;;;;10.30;4.93;;;27.50;1.00;;;;;;4991961;28;20679;-68
2024/04/07 12:16:54;;;;;;;4.20;3.80;;;27.60;1.00;;;;;;4992972;28;20424;-68
2024/04/07 12:19:19;;;;;;;6.63;4.03;;;27.50;1.00;;;;;;5011094;28;20462;-68
2024/04/07 12:21:45;;;;;;;4.47;3.77;;;27.40;1.00;;;;;;5017815;28;20199;-68
2024/04/07 12:24:11;;;;;;;6.30;4.10;;;27.10;1.00;;;;;;5008622;28;20270;-67
2024/04/07 12:26:37;;;;;;;4.63;3.13;;;27.10;1.00;;;;;;5018494;28;20273;-68
2024/04/07 12:29:03;;;;;;;9.20;3.23;;;27.10;1.00;;;;;;5016989;28;20465;-67
2024/04/07 12:31:28;;;;;;;6.73;3.70;;;27.00;1.00;;;;;;5017801;28;20498;-67
2024/04/07 12:33:54;;;;;;;4.80;4.10;;;27.00;1.00;;;;;;5017784;28;20438;-67
2024/04/07 12:36:20;;;;;;;4.30;3.13;;;27.20;1.00;;;;;;5018043;28;20196;-67
2024/04/07 12:38:45;;;;;;;8.50;5.00;;;27.10;1.00;;;;;;5017827;28;20203;-69
2024/04/07 12:41:11;;;;;;;7.40;4.03;;;27.20;1.00;;;;;;5033070;28;20179;-69
2024/04/07 12:43:36;;;;;;;6.37;4.67;;;27.40;1.00;;;;;;5017555;28;20643;-67
2024/04/07 12:46:02;;;;;;;5.63;3.77;;;27.50;1.00;;;;;;5032455;28;20277;-68
2024/04/07 12:48:27;;;;;;;4.63;4.17;;;27.60;1.00;;;;;;4998250;28;20554;-67
2024/04/07 12:50:53;;;;;;;6.83;4.37;;;27.90;1.00;;;;;;4998137;28;20172;-68
2024/04/07 12:53:19;;;;;;;6.17;3.87;;;27.90;1.00;;;;;;5000601;28;20184;-68
2024/04/07 12:55:45;;;;;;;7.17;4.23;;;27.50;1.00;;;;;;4999416;28;20485;-67
2024/04/07 12:58:10;;;;;;;5.30;4.10;;;27.60;1.00;;;;;;4998316;28;20243;-68